sensor_id;sensor_type;location;lat;lon;timestamp;P1;durP1;ratioP1;P2;durP2;ratioP2
8538;SDS011;4307;53.868;11.680;2023-04-03T00:01:58;5.90;;;1.67;;
8538;SDS011;4307;53.868;11.680;2023-04-03T00:04:25;5.93;;;2.00;;
8538;SDS011;4307;53.868;11.680;2023-04-03T00:06:53;4.07;;;1.70;;
8538;SDS011;4307;53.868;11.680;2023-04-03T00:09:20;2.87;;;1.80;;
8538;SDS011;4307;53.868;11.680;2023-04-03T00:11:46;3.93;;;1.80;;
8538;SDS011;4307;53.868;11.680;2023-04-03T00:14:13;6.60;;;2.23;;
8538;SDS011;4307;53.868;11.680;2023-04-03T00:16:40;6.13;;;2.00;;
8538;SDS011;4307;53.868;11.680;2023-04-03T00:19:07;4.43;;;1.80;;
8538;SDS011;4307;53.868;11.680;2023-04-03T00:21:33;7.83;;;1.90;;
8538;SDS011;4307;53.868;11.680;2023-04-03T00:24:02;3.77;;;1.77;;
8538;SDS011;4307;53.868;11.680;2023-04-03T00:26:28;5.13;;;1.87;;
8538;SDS011;4307;53.868;11.680;2023-04-03T00:28:55;2.80;;;1.70;;
8538;SDS011;4307;53.868;11.680;2023-04-03T00:31:22;5.50;;;2.07;;
8538;SDS011;4307;53.868;11.680;2023-04-03T00:33:48;3.50;;;1.77;;
8538;SDS011;4307;53.868;11.680;2023-04-03T00:36:15;3.83;;;2.17;;
8538;SDS011;4307;53.868;11.680;2023-04-03T00:38:41;3.83;;;2.10;;
8538;SDS011;4307;53.868;11.680;2023-04-03T00:41:09;4.00;;;2.10;;
8538;SDS011;4307;53.868;11.680;2023-04-03T00:43:36;4.00;;;1.70;;
8538;SDS011;4307;53.868;11.680;2023-04-03T00:46:03;5.37;;;1.67;;
8538;SDS011;4307;53.868;11.680;2023-04-03T00:48:30;3.27;;;1.73;;
8538;SDS011;4307;53.868;11.680;2023-04-03T00:50:59;4.73;;;1.57;;
8538;SDS011;4307;53.868;11.680;2023-04-03T00:53:28;2.53;;;1.37;;
8538;SDS011;4307;53.868;11.680;2023-04-03T00:55:59;7.23;;;1.70;;
8538;SDS011;4307;53.868;11.680;2023-04-03T00:58:28;4.63;;;1.90;;
8538;SDS011;4307;53.868;11.680;2023-04-03T01:00:59;4.40;;;1.77;;
8538;SDS011;4307;53.868;11.680;2023-04-03T01:03:31;1.47;;;1.07;;
8538;SDS011;4307;53.868;11.680;2023-04-03T01:05:58;2.37;;;1.33;;
8538;SDS011;4307;53.868;11.680;2023-04-03T01:08:25;6.27;;;2.10;;
8538;SDS011;4307;53.868;11.680;2023-04-03T01:10:51;2.00;;;1.30;;
8538;SDS011;4307;53.868;11.680;2023-04-03T01:13:19;4.23;;;2.00;;
8538;SDS011;4307;53.868;11.680;2023-04-03T01:15:49;3.37;;;1.80;;
8538;SDS011;4307;53.868;11.680;2023-04-03T01:18:16;6.10;;;2.37;;
8538;SDS011;4307;53.868;11.680;2023-04-03T01:20:50;3.40;;;1.73;;
8538;SDS011;4307;53.868;11.680;2023-04-03T01:23:43;2.77;;;1.60;;
8538;SDS011;4307;53.868;11.680;2023-04-03T01:26:25;6.60;;;1.73;;
8538;SDS011;4307;53.868;11.680;2023-04-03T01:28:54;4.30;;;1.90;;
8538;SDS011;4307;53.868;11.680;2023-04-03T01:31:24;4.37;;;1.83;;
8538;SDS011;4307;53.868;11.680;2023-04-03T01:33:54;4.33;;;1.90;;
8538;SDS011;4307;53.868;11.680;2023-04-03T01:36:23;5.13;;;2.07;;
8538;SDS011;4307;53.868;11.680;2023-04-03T01:38:50;1.90;;;1.30;;
8538;SDS011;4307;53.868;11.680;2023-04-03T01:41:18;4.30;;;1.87;;
8538;SDS011;4307;53.868;11.680;2023-04-03T01:43:45;2.67;;;1.30;;
8538;SDS011;4307;53.868;11.680;2023-04-03T01:46:13;5.93;;;1.53;;
8538;SDS011;4307;53.868;11.680;2023-04-03T01:48:39;4.73;;;1.50;;
8538;SDS011;4307;53.868;11.680;2023-04-03T01:51:08;1.87;;;1.33;;
8538;SDS011;4307;53.868;11.680;2023-04-03T01:53:34;3.73;;;1.67;;
8538;SDS011;4307;53.868;11.680;2023-04-03T01:56:01;1.83;;;1.73;;
8538;SDS011;4307;53.868;11.680;2023-04-03T01:58:28;3.03;;;1.60;;
8538;SDS011;4307;53.868;11.680;2023-04-03T02:00:54;4.37;;;1.53;;
8538;SDS011;4307;53.868;11.680;2023-04-03T02:03:21;3.60;;;1.63;;
8538;SDS011;4307;53.868;11.680;2023-04-03T02:05:49;4.80;;;1.80;;
8538;SDS011;4307;53.868;11.680;2023-04-03T02:08:17;5.37;;;2.03;;
8538;SDS011;4307;53.868;11.680;2023-04-03T02:10:44;3.87;;;1.23;;
8538;SDS011;4307;53.868;11.680;2023-04-03T02:13:12;4.10;;;1.50;;
8538;SDS011;4307;53.868;11.680;2023-04-03T02:15:39;2.30;;;1.20;;
8538;SDS011;4307;53.868;11.680;2023-04-03T02:18:06;3.10;;;1.20;;
8538;SDS011;4307;53.868;11.680;2023-04-03T02:20:33;5.93;;;2.10;;
8538;SDS011;4307;53.868;11.680;2023-04-03T02:23:00;3.10;;;1.47;;
8538;SDS011;4307;53.868;11.680;2023-04-03T02:25:29;2.13;;;1.20;;
8538;SDS011;4307;53.868;11.680;2023-04-03T02:27:56;5.70;;;1.80;;
8538;SDS011;4307;53.868;11.680;2023-04-03T02:30:23;2.50;;;1.90;;
8538;SDS011;4307;53.868;11.680;2023-04-03T02:32:50;2.13;;;1.43;;
8538;SDS011;4307;53.868;11.680;2023-04-03T02:35:17;4.97;;;1.67;;
8538;SDS011;4307;53.868;11.680;2023-04-03T02:37:43;5.30;;;2.00;;
8538;SDS011;4307;53.868;11.680;2023-04-03T02:40:10;1.30;;;1.20;;
8538;SDS011;4307;53.868;11.680;2023-04-03T02:42:38;3.70;;;1.50;;
8538;SDS011;4307;53.868;11.680;2023-04-03T02:45:06;2.90;;;1.60;;
8538;SDS011;4307;53.868;11.680;2023-04-03T02:47:33;3.30;;;1.87;;
8538;SDS011;4307;53.868;11.680;2023-04-03T02:50:00;7.40;;;1.63;;
8538;SDS011;4307;53.868;11.680;2023-04-03T02:52:26;8.70;;;1.33;;
8538;SDS011;4307;53.868;11.680;2023-04-03T02:54:53;4.27;;;1.57;;
8538;SDS011;4307;53.868;11.680;2023-04-03T02:57:19;2.23;;;1.20;;
8538;SDS011;4307;53.868;11.680;2023-04-03T02:59:47;2.00;;;1.63;;
8538;SDS011;4307;53.868;11.680;2023-04-03T03:02:14;5.20;;;1.63;;
8538;SDS011;4307;53.868;11.680;2023-04-03T03:04:41;2.87;;;1.40;;
8538;SDS011;4307;53.868;11.680;2023-04-03T03:07:08;3.10;;;1.67;;
8538;SDS011;4307;53.868;11.680;2023-04-03T03:09:35;1.47;;;1.37;;
8538;SDS011;4307;53.868;11.680;2023-04-03T03:12:01;3.60;;;1.33;;
8538;SDS011;4307;53.868;11.680;2023-04-03T03:14:28;2.33;;;1.13;;
8538;SDS011;4307;53.868;11.680;2023-04-03T03:16:56;6.13;;;1.80;;
8538;SDS011;4307;53.868;11.680;2023-04-03T03:19:23;2.57;;;1.50;;
8538;SDS011;4307;53.868;11.680;2023-04-03T03:21:50;3.50;;;1.93;;
8538;SDS011;4307;53.868;11.680;2023-04-03T03:24:17;6.07;;;1.70;;
8538;SDS011;4307;53.868;11.680;2023-04-03T03:26:43;3.53;;;1.23;;
8538;SDS011;4307;53.868;11.680;2023-04-03T03:29:10;3.57;;;1.50;;
8538;SDS011;4307;53.868;11.680;2023-04-03T03:31:36;5.43;;;1.53;;
8538;SDS011;4307;53.868;11.680;2023-04-03T03:34:04;2.50;;;1.50;;
8538;SDS011;4307;53.868;11.680;2023-04-03T03:36:31;1.40;;;1.03;;
8538;SDS011;4307;53.868;11.680;2023-04-03T03:38:58;4.17;;;1.50;;
8538;SDS011;4307;53.868;11.680;2023-04-03T03:41:24;3.93;;;1.00;;
8538;SDS011;4307;53.868;11.680;2023-04-03T03:43:51;3.10;;;1.07;;
8538;SDS011;4307;53.868;11.680;2023-04-03T03:46:18;1.80;;;1.20;;
8538;SDS011;4307;53.868;11.680;2023-04-03T03:48:44;6.53;;;2.00;;
8538;SDS011;4307;53.868;11.680;2023-04-03T03:51:12;1.70;;;1.37;;
8538;SDS011;4307;53.868;11.680;2023-04-03T03:53:39;3.40;;;1.17;;
8538;SDS011;4307;53.868;11.680;2023-04-03T03:56:06;3.83;;;1.60;;
8538;SDS011;4307;53.868;11.680;2023-04-03T03:58:33;9.30;;;1.53;;
8538;SDS011;4307;53.868;11.680;2023-04-03T04:01:00;2.87;;;1.33;;
8538;SDS011;4307;53.868;11.680;2023-04-03T04:03:27;3.57;;;1.33;;
8538;SDS011;4307;53.868;11.680;2023-04-03T04:05:54;3.17;;;1.37;;
8538;SDS011;4307;53.868;11.680;2023-04-03T04:08:22;4.13;;;1.77;;
8538;SDS011;4307;53.868;11.680;2023-04-03T04:10:49;1.50;;;1.40;;
8538;SDS011;4307;53.868;11.680;2023-04-03T04:13:16;6.17;;;1.27;;
8538;SDS011;4307;53.868;11.680;2023-04-03T04:15:43;5.73;;;1.77;;
8538;SDS011;4307;53.868;11.680;2023-04-03T04:18:10;2.97;;;1.30;;
8538;SDS011;4307;53.868;11.680;2023-04-03T04:20:36;3.10;;;1.40;;
8538;SDS011;4307;53.868;11.680;2023-04-03T04:23:03;3.27;;;1.37;;
8538;SDS011;4307;53.868;11.680;2023-04-03T04:25:31;6.13;;;1.90;;
8538;SDS011;4307;53.868;11.680;2023-04-03T04:27:58;4.47;;;1.57;;
8538;SDS011;4307;53.868;11.680;2023-04-03T04:30:25;2.80;;;1.47;;
8538;SDS011;4307;53.868;11.680;2023-04-03T04:32:52;3.57;;;1.50;;
8538;SDS011;4307;53.868;11.680;2023-04-03T04:35:19;2.63;;;1.40;;
8538;SDS011;4307;53.868;11.680;2023-04-03T04:37:45;4.90;;;1.67;;
8538;SDS011;4307;53.868;11.680;2023-04-03T04:40:12;1.33;;;1.03;;
8538;SDS011;4307;53.868;11.680;2023-04-03T04:42:40;1.57;;;1.03;;
8538;SDS011;4307;53.868;11.680;2023-04-03T04:45:07;5.63;;;1.67;;
8538;SDS011;4307;53.868;11.680;2023-04-03T04:47:34;3.30;;;1.70;;
8538;SDS011;4307;53.868;11.680;2023-04-03T04:50:01;1.10;;;0.97;;
8538;SDS011;4307;53.868;11.680;2023-04-03T04:52:28;4.83;;;1.30;;
8538;SDS011;4307;53.868;11.680;2023-04-03T04:54:55;3.77;;;1.50;;
8538;SDS011;4307;53.868;11.680;2023-04-03T04:57:21;3.43;;;1.30;;
8538;SDS011;4307;53.868;11.680;2023-04-03T04:59:49;7.27;;;1.60;;
8538;SDS011;4307;53.868;11.680;2023-04-03T05:02:16;2.77;;;1.50;;
8538;SDS011;4307;53.868;11.680;2023-04-03T05:04:43;2.03;;;1.50;;
8538;SDS011;4307;53.868;11.680;2023-04-03T05:07:09;2.47;;;2.00;;
8538;SDS011;4307;53.868;11.680;2023-04-03T05:09:36;6.70;;;4.13;;
8538;SDS011;4307;53.868;11.680;2023-04-03T05:12:03;4.83;;;1.90;;
8538;SDS011;4307;53.868;11.680;2023-04-03T05:14:30;9.10;;;2.57;;
8538;SDS011;4307;53.868;11.680;2023-04-03T05:16:58;5.10;;;1.80;;
8538;SDS011;4307;53.868;11.680;2023-04-03T05:19:24;4.97;;;2.03;;
8538;SDS011;4307;53.868;11.680;2023-04-03T05:21:51;3.30;;;1.77;;
8538;SDS011;4307;53.868;11.680;2023-04-03T05:24:18;5.37;;;2.07;;
8538;SDS011;4307;53.868;11.680;2023-04-03T05:26:44;8.77;;;2.60;;
8538;SDS011;4307;53.868;11.680;2023-04-03T05:29:11;3.97;;;1.93;;
8538;SDS011;4307;53.868;11.680;2023-04-03T05:31:38;3.10;;;1.70;;
8538;SDS011;4307;53.868;11.680;2023-04-03T05:34:06;4.97;;;2.13;;
8538;SDS011;4307;53.868;11.680;2023-04-03T05:36:32;3.70;;;2.00;;
8538;SDS011;4307;53.868;11.680;2023-04-03T05:38:59;4.20;;;1.53;;
8538;SDS011;4307;53.868;11.680;2023-04-03T05:41:26;2.47;;;1.40;;
8538;SDS011;4307;53.868;11.680;2023-04-03T05:43:53;3.03;;;1.73;;
8538;SDS011;4307;53.868;11.680;2023-04-03T05:46:19;2.97;;;1.53;;
8538;SDS011;4307;53.868;11.680;2023-04-03T05:48:47;4.27;;;1.83;;
8538;SDS011;4307;53.868;11.680;2023-04-03T05:51:17;5.33;;;1.70;;
8538;SDS011;4307;53.868;11.680;2023-04-03T05:53:45;4.70;;;1.73;;
8538;SDS011;4307;53.868;11.680;2023-04-03T05:56:13;5.03;;;1.70;;
8538;SDS011;4307;53.868;11.680;2023-04-03T05:58:40;3.33;;;1.33;;
8538;SDS011;4307;53.868;11.680;2023-04-03T06:01:07;5.83;;;1.83;;
8538;SDS011;4307;53.868;11.680;2023-04-03T06:03:33;3.03;;;1.90;;
8538;SDS011;4307;53.868;11.680;2023-04-03T06:06:02;5.63;;;2.03;;
8538;SDS011;4307;53.868;11.680;2023-04-03T06:08:31;5.80;;;1.60;;
8538;SDS011;4307;53.868;11.680;2023-04-03T06:10:58;4.87;;;2.00;;
8538;SDS011;4307;53.868;11.680;2023-04-03T06:13:27;1.57;;;1.47;;
8538;SDS011;4307;53.868;11.680;2023-04-03T06:15:54;5.93;;;1.77;;
8538;SDS011;4307;53.868;11.680;2023-04-03T06:18:21;4.67;;;1.37;;
8538;SDS011;4307;53.868;11.680;2023-04-03T06:20:48;5.00;;;1.60;;
8538;SDS011;4307;53.868;11.680;2023-04-03T06:23:14;4.53;;;1.60;;
8538;SDS011;4307;53.868;11.680;2023-04-03T06:25:42;3.87;;;1.53;;
8538;SDS011;4307;53.868;11.680;2023-04-03T06:28:09;1.67;;;1.57;;
8538;SDS011;4307;53.868;11.680;2023-04-03T06:30:36;3.83;;;1.40;;
8538;SDS011;4307;53.868;11.680;2023-04-03T06:33:03;3.10;;;1.73;;
8538;SDS011;4307;53.868;11.680;2023-04-03T06:35:29;5.13;;;1.70;;
8538;SDS011;4307;53.868;11.680;2023-04-03T06:37:56;2.03;;;1.30;;
8538;SDS011;4307;53.868;11.680;2023-04-03T06:40:24;5.40;;;1.40;;
8538;SDS011;4307;53.868;11.680;2023-04-03T06:42:53;2.77;;;1.30;;
8538;SDS011;4307;53.868;11.680;2023-04-03T06:45:20;3.13;;;1.43;;
8538;SDS011;4307;53.868;11.680;2023-04-03T06:47:46;5.37;;;1.07;;
8538;SDS011;4307;53.868;11.680;2023-04-03T06:50:13;3.07;;;1.40;;
8538;SDS011;4307;53.868;11.680;2023-04-03T06:52:40;2.47;;;0.90;;
8538;SDS011;4307;53.868;11.680;2023-04-03T06:55:07;2.30;;;1.50;;
8538;SDS011;4307;53.868;11.680;2023-04-03T06:57:35;2.10;;;1.03;;
8538;SDS011;4307;53.868;11.680;2023-04-03T07:00:04;5.47;;;1.33;;
8538;SDS011;4307;53.868;11.680;2023-04-03T07:02:32;6.13;;;1.23;;
8538;SDS011;4307;53.868;11.680;2023-04-03T07:04:59;4.80;;;1.23;;
8538;SDS011;4307;53.868;11.680;2023-04-03T07:07:25;4.90;;;1.47;;
8538;SDS011;4307;53.868;11.680;2023-04-03T07:09:52;2.43;;;1.20;;
8538;SDS011;4307;53.868;11.680;2023-04-03T07:12:19;3.50;;;1.30;;
8538;SDS011;4307;53.868;11.680;2023-04-03T07:14:46;3.20;;;1.10;;
8538;SDS011;4307;53.868;11.680;2023-04-03T07:17:14;6.10;;;0.90;;
8538;SDS011;4307;53.868;11.680;2023-04-03T07:19:41;4.93;;;0.90;;
8538;SDS011;4307;53.868;11.680;2023-04-03T07:22:07;2.70;;;1.00;;
8538;SDS011;4307;53.868;11.680;2023-04-03T07:24:36;3.47;;;1.20;;
8538;SDS011;4307;53.868;11.680;2023-04-03T07:27:03;5.50;;;1.17;;
8538;SDS011;4307;53.868;11.680;2023-04-03T07:29:30;2.97;;;1.00;;
8538;SDS011;4307;53.868;11.680;2023-04-03T07:31:57;3.33;;;1.00;;
8538;SDS011;4307;53.868;11.680;2023-04-03T07:34:25;5.37;;;1.27;;
8538;SDS011;4307;53.868;11.680;2023-04-03T07:36:52;3.30;;;1.60;;
8538;SDS011;4307;53.868;11.680;2023-04-03T07:39:19;3.00;;;1.47;;
8538;SDS011;4307;53.868;11.680;2023-04-03T07:41:46;1.83;;;1.00;;
8538;SDS011;4307;53.868;11.680;2023-04-03T07:44:13;1.57;;;1.17;;
8538;SDS011;4307;53.868;11.680;2023-04-03T07:46:40;3.70;;;1.30;;
8538;SDS011;4307;53.868;11.680;2023-04-03T07:49:07;3.70;;;1.00;;
8538;SDS011;4307;53.868;11.680;2023-04-03T07:51:35;3.23;;;1.03;;
8538;SDS011;4307;53.868;11.680;2023-04-03T07:54:02;2.17;;;1.17;;
8538;SDS011;4307;53.868;11.680;2023-04-03T07:56:32;2.50;;;0.97;;
8538;SDS011;4307;53.868;11.680;2023-04-03T07:58:59;2.77;;;0.90;;
8538;SDS011;4307;53.868;11.680;2023-04-03T08:01:26;1.93;;;0.90;;
8538;SDS011;4307;53.868;11.680;2023-04-03T08:03:53;2.63;;;1.00;;
8538;SDS011;4307;53.868;11.680;2023-04-03T08:06:19;3.90;;;1.30;;
8538;SDS011;4307;53.868;11.680;2023-04-03T08:08:47;2.63;;;1.43;;
8538;SDS011;4307;53.868;11.680;2023-04-03T08:11:14;5.43;;;1.57;;
8538;SDS011;4307;53.868;11.680;2023-04-03T08:13:41;2.80;;;1.07;;
8538;SDS011;4307;53.868;11.680;2023-04-03T08:16:09;4.37;;;1.10;;
8538;SDS011;4307;53.868;11.680;2023-04-03T08:18:37;3.43;;;1.40;;
8538;SDS011;4307;53.868;11.680;2023-04-03T08:21:07;2.13;;;1.07;;
8538;SDS011;4307;53.868;11.680;2023-04-03T08:23:34;2.23;;;1.30;;
8538;SDS011;4307;53.868;11.680;2023-04-03T08:26:06;1.53;;;1.20;;
8538;SDS011;4307;53.868;11.680;2023-04-03T08:28:35;4.47;;;1.47;;
8538;SDS011;4307;53.868;11.680;2023-04-03T08:31:02;3.20;;;1.03;;
8538;SDS011;4307;53.868;11.680;2023-04-03T08:33:31;3.10;;;1.27;;
8538;SDS011;4307;53.868;11.680;2023-04-03T08:35:58;2.10;;;1.20;;
8538;SDS011;4307;53.868;11.680;2023-04-03T08:38:25;3.40;;;1.43;;
8538;SDS011;4307;53.868;11.680;2023-04-03T08:40:59;3.70;;;1.47;;
8538;SDS011;4307;53.868;11.680;2023-04-03T08:43:32;3.97;;;1.30;;
8538;SDS011;4307;53.868;11.680;2023-04-03T08:46:10;6.13;;;1.40;;
8538;SDS011;4307;53.868;11.680;2023-04-03T08:48:40;3.30;;;1.10;;
8538;SDS011;4307;53.868;11.680;2023-04-03T08:51:09;2.67;;;0.97;;
8538;SDS011;4307;53.868;11.680;2023-04-03T08:53:40;2.70;;;1.90;;
8538;SDS011;4307;53.868;11.680;2023-04-03T08:56:10;1.87;;;1.23;;
8538;SDS011;4307;53.868;11.680;2023-04-03T08:58:42;3.40;;;1.03;;
8538;SDS011;4307;53.868;11.680;2023-04-03T09:01:16;2.10;;;1.13;;
8538;SDS011;4307;53.868;11.680;2023-04-03T09:03:45;2.10;;;1.00;;
8538;SDS011;4307;53.868;11.680;2023-04-03T09:06:12;3.50;;;1.27;;
8538;SDS011;4307;53.868;11.680;2023-04-03T09:08:43;1.90;;;1.27;;
8538;SDS011;4307;53.868;11.680;2023-04-03T09:11:16;3.03;;;1.63;;
8538;SDS011;4307;53.868;11.680;2023-04-03T09:13:51;1.63;;;1.23;;
8538;SDS011;4307;53.868;11.680;2023-04-03T09:16:26;2.43;;;1.27;;
8538;SDS011;4307;53.868;11.680;2023-04-03T09:19:01;1.60;;;1.10;;
8538;SDS011;4307;53.868;11.680;2023-04-03T09:21:37;2.17;;;1.00;;
8538;SDS011;4307;53.868;11.680;2023-04-03T09:24:07;2.83;;;0.83;;
8538;SDS011;4307;53.868;11.680;2023-04-03T09:26:39;2.17;;;1.33;;
8538;SDS011;4307;53.868;11.680;2023-04-03T09:29:12;1.70;;;0.83;;
8538;SDS011;4307;53.868;11.680;2023-04-03T09:31:44;2.73;;;1.33;;
8538;SDS011;4307;53.868;11.680;2023-04-03T09:34:14;3.03;;;1.10;;
8538;SDS011;4307;53.868;11.680;2023-04-03T09:36:46;2.00;;;1.03;;
8538;SDS011;4307;53.868;11.680;2023-04-03T09:39:15;2.27;;;0.97;;
8538;SDS011;4307;53.868;11.680;2023-04-03T09:41:54;2.03;;;0.97;;
8538;SDS011;4307;53.868;11.680;2023-04-03T09:44:26;1.63;;;1.00;;
8538;SDS011;4307;53.868;11.680;2023-04-03T09:46:55;1.97;;;0.90;;
8538;SDS011;4307;53.868;11.680;2023-04-03T09:49:22;1.73;;;1.03;;
8538;SDS011;4307;53.868;11.680;2023-04-03T09:51:49;1.70;;;1.10;;
8538;SDS011;4307;53.868;11.680;2023-04-03T09:54:26;1.37;;;1.27;;
8538;SDS011;4307;53.868;11.680;2023-04-03T09:57:04;1.37;;;0.90;;
8538;SDS011;4307;53.868;11.680;2023-04-03T09:59:36;2.77;;;0.80;;
8538;SDS011;4307;53.868;11.680;2023-04-03T10:02:18;4.13;;;1.00;;
8538;SDS011;4307;53.868;11.680;2023-04-03T10:04:49;2.43;;;0.80;;
8538;SDS011;4307;53.868;11.680;2023-04-03T10:07:26;1.33;;;0.93;;
8538;SDS011;4307;53.868;11.680;2023-04-03T10:09:58;1.67;;;0.90;;
8538;SDS011;4307;53.868;11.680;2023-04-03T10:12:28;1.60;;;0.77;;
8538;SDS011;4307;53.868;11.680;2023-04-03T10:14:56;0.93;;;0.60;;
8538;SDS011;4307;53.868;11.680;2023-04-03T10:17:28;2.17;;;1.00;;
8538;SDS011;4307;53.868;11.680;2023-04-03T10:20:06;2.10;;;0.97;;
8538;SDS011;4307;53.868;11.680;2023-04-03T10:22:44;2.27;;;1.00;;
8538;SDS011;4307;53.868;11.680;2023-04-03T10:25:17;1.10;;;0.80;;
8538;SDS011;4307;53.868;11.680;2023-04-03T10:27:53;0.83;;;0.77;;
8538;SDS011;4307;53.868;11.680;2023-04-03T10:30:29;4.80;;;1.10;;
8538;SDS011;4307;53.868;11.680;2023-04-03T10:33:08;0.80;;;0.77;;
8538;SDS011;4307;53.868;11.680;2023-04-03T10:35:48;3.70;;;0.87;;
8538;SDS011;4307;53.868;11.680;2023-04-03T10:38:24;1.37;;;1.10;;
8538;SDS011;4307;53.868;11.680;2023-04-03T10:40:59;2.33;;;1.23;;
8538;SDS011;4307;53.868;11.680;2023-04-03T10:43:33;0.83;;;0.70;;
8538;SDS011;4307;53.868;11.680;2023-04-03T10:46:09;1.47;;;0.80;;
8538;SDS011;4307;53.868;11.680;2023-04-03T10:48:45;1.23;;;0.63;;
8538;SDS011;4307;53.868;11.680;2023-04-03T10:51:25;1.00;;;0.40;;
8538;SDS011;4307;53.868;11.680;2023-04-03T10:53:58;0.60;;;0.50;;
8538;SDS011;4307;53.868;11.680;2023-04-03T10:56:32;2.97;;;1.00;;
8538;SDS011;4307;53.868;11.680;2023-04-03T10:59:08;1.33;;;1.03;;
8538;SDS011;4307;53.868;11.680;2023-04-03T11:01:45;2.87;;;1.00;;
8538;SDS011;4307;53.868;11.680;2023-04-03T11:04:15;4.57;;;1.27;;
8538;SDS011;4307;53.868;11.680;2023-04-03T11:06:45;0.60;;;0.50;;
8538;SDS011;4307;53.868;11.680;2023-04-03T11:09:18;2.77;;;0.90;;
8538;SDS011;4307;53.868;11.680;2023-04-03T11:11:47;2.43;;;0.90;;
8538;SDS011;4307;53.868;11.680;2023-04-03T11:14:17;3.60;;;1.17;;
8538;SDS011;4307;53.868;11.680;2023-04-03T11:16:54;0.73;;;0.73;;
8538;SDS011;4307;53.868;11.680;2023-04-03T11:19:32;0.60;;;0.37;;
8538;SDS011;4307;53.868;11.680;2023-04-03T11:22:04;0.60;;;0.40;;
8538;SDS011;4307;53.868;11.680;2023-04-03T11:24:37;1.10;;;0.60;;
8538;SDS011;4307;53.868;11.680;2023-04-03T11:27:08;2.60;;;1.00;;
8538;SDS011;4307;53.868;11.680;2023-04-03T11:29:41;2.17;;;0.70;;
8538;SDS011;4307;53.868;11.680;2023-04-03T11:32:20;0.73;;;0.63;;
8538;SDS011;4307;53.868;11.680;2023-04-03T11:35:00;1.30;;;0.83;;
8538;SDS011;4307;53.868;11.680;2023-04-03T11:37:31;1.57;;;0.80;;
8538;SDS011;4307;53.868;11.680;2023-04-03T11:40:02;1.70;;;0.87;;
8538;SDS011;4307;53.868;11.680;2023-04-03T11:42:34;0.73;;;0.40;;
8538;SDS011;4307;53.868;11.680;2023-04-03T11:45:16;0.87;;;0.77;;
8538;SDS011;4307;53.868;11.680;2023-04-03T11:48:01;1.83;;;0.50;;
8538;SDS011;4307;53.868;11.680;2023-04-03T11:50:43;1.47;;;0.70;;
8538;SDS011;4307;53.868;11.680;2023-04-03T11:53:27;2.37;;;0.73;;
8538;SDS011;4307;53.868;11.680;2023-04-03T11:56:00;1.30;;;0.83;;
8538;SDS011;4307;53.868;11.680;2023-04-03T11:58:28;1.40;;;0.90;;
8538;SDS011;4307;53.868;11.680;2023-04-03T12:01:06;3.57;;;0.70;;
8538;SDS011;4307;53.868;11.680;2023-04-03T12:09:35;0.47;;;0.40;;
8538;SDS011;4307;53.868;11.680;2023-04-03T12:12:39;1.03;;;0.80;;
8538;SDS011;4307;53.868;11.680;2023-04-03T12:15:17;4.87;;;0.80;;
8538;SDS011;4307;53.868;11.680;2023-04-03T12:17:47;1.87;;;1.00;;
8538;SDS011;4307;53.868;11.680;2023-04-03T12:23:29;1.13;;;0.73;;
8538;SDS011;4307;53.868;11.680;2023-04-03T12:26:02;2.20;;;1.27;;
8538;SDS011;4307;53.868;11.680;2023-04-03T12:28:35;3.87;;;1.10;;
8538;SDS011;4307;53.868;11.680;2023-04-03T12:31:04;1.77;;;0.90;;
8538;SDS011;4307;53.868;11.680;2023-04-03T12:33:37;1.73;;;0.87;;
8538;SDS011;4307;53.868;11.680;2023-04-03T12:36:15;1.50;;;0.93;;
8538;SDS011;4307;53.868;11.680;2023-04-03T12:38:53;3.90;;;0.90;;
8538;SDS011;4307;53.868;11.680;2023-04-03T12:41:31;2.73;;;1.20;;
8538;SDS011;4307;53.868;11.680;2023-04-03T12:44:07;3.70;;;1.10;;
8538;SDS011;4307;53.868;11.680;2023-04-03T12:46:49;2.87;;;1.20;;
8538;SDS011;4307;53.868;11.680;2023-04-03T12:49:31;2.73;;;1.33;;
8538;SDS011;4307;53.868;11.680;2023-04-03T12:52:02;6.70;;;1.20;;
8538;SDS011;4307;53.868;11.680;2023-04-03T12:54:34;4.93;;;1.17;;
8538;SDS011;4307;53.868;11.680;2023-04-03T12:57:11;3.53;;;1.37;;
8538;SDS011;4307;53.868;11.680;2023-04-03T12:59:42;6.33;;;1.43;;
8538;SDS011;4307;53.868;11.680;2023-04-03T13:02:15;4.50;;;1.43;;
8538;SDS011;4307;53.868;11.680;2023-04-03T13:04:47;2.70;;;0.90;;
8538;SDS011;4307;53.868;11.680;2023-04-03T13:07:21;2.37;;;1.00;;
8538;SDS011;4307;53.868;11.680;2023-04-03T13:09:57;3.50;;;1.20;;
8538;SDS011;4307;53.868;11.680;2023-04-03T13:12:26;2.00;;;0.90;;
8538;SDS011;4307;53.868;11.680;2023-04-03T13:14:53;4.33;;;1.10;;
8538;SDS011;4307;53.868;11.680;2023-04-03T13:17:22;4.87;;;1.70;;
8538;SDS011;4307;53.868;11.680;2023-04-03T13:19:49;3.27;;;1.20;;
8538;SDS011;4307;53.868;11.680;2023-04-03T13:22:21;3.90;;;1.40;;
8538;SDS011;4307;53.868;11.680;2023-04-03T13:24:53;2.43;;;1.50;;
8538;SDS011;4307;53.868;11.680;2023-04-03T13:27:23;3.37;;;1.20;;
8538;SDS011;4307;53.868;11.680;2023-04-03T13:29:51;2.60;;;1.73;;
8538;SDS011;4307;53.868;11.680;2023-04-03T13:32:20;5.47;;;1.53;;
8538;SDS011;4307;53.868;11.680;2023-04-03T13:34:49;1.93;;;1.10;;
8538;SDS011;4307;53.868;11.680;2023-04-03T13:37:20;6.77;;;1.60;;
8538;SDS011;4307;53.868;11.680;2023-04-03T13:39:56;2.33;;;1.07;;
8538;SDS011;4307;53.868;11.680;2023-04-03T13:42:27;4.13;;;1.10;;
8538;SDS011;4307;53.868;11.680;2023-04-03T13:47:45;5.10;;;1.63;;
8538;SDS011;4307;53.868;11.680;2023-04-03T13:50:14;1.60;;;1.10;;
8538;SDS011;4307;53.868;11.680;2023-04-03T13:52:47;0.93;;;0.73;;
8538;SDS011;4307;53.868;11.680;2023-04-03T13:55:17;4.83;;;1.40;;
8538;SDS011;4307;53.868;11.680;2023-04-03T13:57:53;1.60;;;1.10;;
8538;SDS011;4307;53.868;11.680;2023-04-03T14:00:27;6.37;;;1.43;;
8538;SDS011;4307;53.868;11.680;2023-04-03T14:02:57;1.90;;;1.00;;
8538;SDS011;4307;53.868;11.680;2023-04-03T14:05:24;3.33;;;1.00;;
8538;SDS011;4307;53.868;11.680;2023-04-03T14:07:51;5.17;;;1.60;;
8538;SDS011;4307;53.868;11.680;2023-04-03T14:10:19;3.53;;;1.33;;
8538;SDS011;4307;53.868;11.680;2023-04-03T14:12:46;4.07;;;1.60;;
8538;SDS011;4307;53.868;11.680;2023-04-03T14:15:18;6.07;;;1.30;;
8538;SDS011;4307;53.868;11.680;2023-04-03T14:17:46;3.67;;;1.20;;
8538;SDS011;4307;53.868;11.680;2023-04-03T14:20:16;1.30;;;0.77;;
8538;SDS011;4307;53.868;11.680;2023-04-03T14:22:45;2.40;;;1.13;;
8538;SDS011;4307;53.868;11.680;2023-04-03T14:25:12;3.20;;;1.00;;
8538;SDS011;4307;53.868;11.680;2023-04-03T14:27:39;3.70;;;1.37;;
8538;SDS011;4307;53.868;11.680;2023-04-03T14:30:08;3.10;;;1.40;;
8538;SDS011;4307;53.868;11.680;2023-04-03T14:32:42;4.50;;;1.47;;
8538;SDS011;4307;53.868;11.680;2023-04-03T14:35:08;3.00;;;1.13;;
8538;SDS011;4307;53.868;11.680;2023-04-03T14:37:37;3.07;;;0.90;;
8538;SDS011;4307;53.868;11.680;2023-04-03T14:40:05;2.33;;;1.27;;
8538;SDS011;4307;53.868;11.680;2023-04-03T14:42:34;3.00;;;1.10;;
8538;SDS011;4307;53.868;11.680;2023-04-03T14:45:03;1.60;;;0.90;;
8538;SDS011;4307;53.868;11.680;2023-04-03T14:47:32;2.53;;;1.00;;
8538;SDS011;4307;53.868;11.680;2023-04-03T14:50:01;1.53;;;0.93;;
8538;SDS011;4307;53.868;11.680;2023-04-03T14:52:33;3.23;;;1.10;;
8538;SDS011;4307;53.868;11.680;2023-04-03T14:55:02;2.47;;;0.90;;
8538;SDS011;4307;53.868;11.680;2023-04-03T14:57:31;3.13;;;1.30;;
8538;SDS011;4307;53.868;11.680;2023-04-03T14:59:58;2.47;;;1.00;;
8538;SDS011;4307;53.868;11.680;2023-04-03T15:02:27;5.03;;;1.23;;
8538;SDS011;4307;53.868;11.680;2023-04-03T15:04:56;5.30;;;1.33;;
8538;SDS011;4307;53.868;11.680;2023-04-03T15:07:25;1.47;;;0.80;;
8538;SDS011;4307;53.868;11.680;2023-04-03T15:09:54;1.30;;;0.87;;
8538;SDS011;4307;53.868;11.680;2023-04-03T15:12:21;1.43;;;0.80;;
8538;SDS011;4307;53.868;11.680;2023-04-03T15:14:48;2.30;;;1.20;;
8538;SDS011;4307;53.868;11.680;2023-04-03T15:17:15;1.80;;;1.00;;
8538;SDS011;4307;53.868;11.680;2023-04-03T15:19:44;2.57;;;1.10;;
8538;SDS011;4307;53.868;11.680;2023-04-03T15:22:12;4.10;;;0.77;;
8538;SDS011;4307;53.868;11.680;2023-04-03T15:24:42;1.83;;;0.77;;
8538;SDS011;4307;53.868;11.680;2023-04-03T15:27:09;0.70;;;0.70;;